sensor_id;sensor_type;location;lat;lon;timestamp;pressure;altitude;pressure_sealevel;temperature;humidity
19594;BME280;9944;48.240;16.478;2023-05-22T00:02:16;99667.25;;;17.07;67.25
19594;BME280;9944;48.240;16.478;2023-05-22T00:06:19;99665.69;;;17.02;67.13
19594;BME280;9944;48.240;16.478;2023-05-22T00:10:22;99664.94;;;16.96;67.46
19594;BME280;9944;48.240;16.478;2023-05-22T00:14:25;99668.56;;;16.94;67.56
19594;BME280;9944;48.240;16.478;2023-05-22T00:18:30;99665.22;;;16.89;67.79
19594;BME280;9944;48.240;16.478;2023-05-22T00:22:33;99664.34;;;16.87;67.76
19594;BME280;9944;48.240;16.478;2023-05-22T00:26:37;99668.06;;;16.83;68.12
19594;BME280;9944;48.240;16.478;2023-05-22T00:30:40;99669.97;;;16.77;68.38
19594;BME280;9944;48.240;16.478;2023-05-22T00:34:44;99668.28;;;16.75;68.56
19594;BME280;9944;48.240;16.478;2023-05-22T00:38:48;99655.03;;;16.72;68.32
19594;BME280;9944;48.240;16.478;2023-05-22T00:42:51;99656.06;;;16.66;68.31
19594;BME280;9944;48.240;16.478;2023-05-22T00:46:54;99659.78;;;16.62;68.67
19594;BME280;9944;48.240;16.478;2023-05-22T00:51:00;99651.91;;;16.57;68.94
19594;BME280;9944;48.240;16.478;2023-05-22T00:55:05;99648.47;;;16.54;68.95
19594;BME280;9944;48.240;16.478;2023-05-22T00:59:09;99647.72;;;16.49;69.36
19594;BME280;9944;48.240;16.478;2023-05-22T01:03:13;99648.75;;;16.44;69.88
19594;BME280;9944;48.240;16.478;2023-05-22T01:07:18;99651.50;;;16.41;70.05
19594;BME280;9944;48.240;16.478;2023-05-22T01:11:26;99649.88;;;16.37;70.21
19594;BME280;9944;48.240;16.478;2023-05-22T01:15:36;99653.56;;;16.33;70.31
19594;BME280;9944;48.240;16.478;2023-05-22T01:19:53;99658.06;;;16.30;70.26
19594;BME280;9944;48.240;16.478;2023-05-22T01:24:28;99657.41;;;16.23;70.31
19594;BME280;9944;48.240;16.478;2023-05-22T01:33:05;99664.81;;;16.12;71.08
19594;BME280;9944;48.240;16.478;2023-05-22T01:37:10;99669.34;;;16.08;71.40
19594;BME280;9944;48.240;16.478;2023-05-22T01:41:16;99667.69;;;16.05;71.64
19594;BME280;9944;48.240;16.478;2023-05-22T01:45:20;99665.16;;;15.99;71.90
19594;BME280;9944;48.240;16.478;2023-05-22T01:49:24;99670.66;;;15.93;72.05
19594;BME280;9944;48.240;16.478;2023-05-22T01:53:32;99669.00;;;15.89;72.44
19594;BME280;9944;48.240;16.478;2023-05-22T01:57:45;99681.47;;;15.87;72.36
19594;BME280;9944;48.240;16.478;2023-05-22T02:01:51;99678.03;;;15.82;72.15
19594;BME280;9944;48.240;16.478;2023-05-22T02:05:59;99669.31;;;15.77;72.06
19594;BME280;9944;48.240;16.478;2023-05-22T02:10:06;99668.63;;;15.68;71.86
19594;BME280;9944;48.240;16.478;2023-05-22T02:14:11;99667.00;;;15.63;72.00
19594;BME280;9944;48.240;16.478;2023-05-22T02:18:14;99665.41;;;15.57;71.90
19594;BME280;9944;48.240;16.478;2023-05-22T02:22:19;99668.13;;;15.54;72.02
19594;BME280;9944;48.240;16.478;2023-05-22T02:26:22;99665.59;;;15.49;72.02
19594;BME280;9944;48.240;16.478;2023-05-22T02:30:26;99661.22;;;15.47;72.23
19594;BME280;9944;48.240;16.478;2023-05-22T02:34:31;99662.22;;;15.43;72.36
19594;BME280;9944;48.240;16.478;2023-05-22T02:38:37;99663.22;;;15.39;72.38
19594;BME280;9944;48.240;16.478;2023-05-22T02:42:40;99655.34;;;15.34;72.75
19594;BME280;9944;48.240;16.478;2023-05-22T02:46:44;99650.16;;;15.29;73.08
19594;BME280;9944;48.240;16.478;2023-05-22T02:50:48;99652.00;;;15.27;73.28
19594;BME280;9944;48.240;16.478;2023-05-22T02:54:52;99643.16;;;15.25;73.35
19594;BME280;9944;48.240;16.478;2023-05-22T02:58:56;99646.84;;;15.20;73.57
19594;BME280;9944;48.240;16.478;2023-05-22T03:02:59;99654.97;;;15.15;74.01
19594;BME280;9944;48.240;16.478;2023-05-22T03:07:03;99655.06;;;15.10;74.02
19594;BME280;9944;48.240;16.478;2023-05-22T03:11:09;99654.25;;;15.07;74.13
19594;BME280;9944;48.240;16.478;2023-05-22T03:15:12;99657.97;;;15.01;74.22
19594;BME280;9944;48.240;16.478;2023-05-22T03:19:17;99664.25;;;14.97;74.20
19594;BME280;9944;48.240;16.478;2023-05-22T03:23:20;99656.44;;;14.91;74.58
19594;BME280;9944;48.240;16.478;2023-05-22T03:27:24;99652.91;;;14.89;74.50
19594;BME280;9944;48.240;16.478;2023-05-22T03:31:29;99659.19;;;14.86;74.71
19594;BME280;9944;48.240;16.478;2023-05-22T03:35:40;99657.38;;;14.87;74.89
19594;BME280;9944;48.240;16.478;2023-05-22T03:39:45;99660.00;;;14.88;74.85
19594;BME280;9944;48.240;16.478;2023-05-22T03:44:02;99663.50;;;14.90;74.95
19594;BME280;9944;48.240;16.478;2023-05-22T03:48:07;99664.34;;;14.92;74.88
19594;BME280;9944;48.240;16.478;2023-05-22T03:52:11;99669.59;;;14.96;74.87
19594;BME280;9944;48.240;16.478;2023-05-22T03:56:15;99666.94;;;14.96;74.81
19594;BME280;9944;48.240;16.478;2023-05-22T04:00:23;99678.50;;;14.94;74.77
19594;BME280;9944;48.240;16.478;2023-05-22T04:04:27;99674.91;;;14.96;75.02
19594;BME280;9944;48.240;16.478;2023-05-22T04:08:30;99674.91;;;14.96;74.90
19594;BME280;9944;48.240;16.478;2023-05-22T04:12:34;99672.25;;;14.96;74.96
19594;BME280;9944;48.240;16.478;2023-05-22T04:16:38;99675.81;;;14.96;74.98
19594;BME280;9944;48.240;16.478;2023-05-22T04:20:41;99670.47;;;14.96;75.29
19594;BME280;9944;48.240;16.478;2023-05-22T04:24:44;99677.53;;;14.97;75.35
19594;BME280;9944;48.240;16.478;2023-05-22T04:28:49;99669.53;;;14.99;75.38
19594;BME280;9944;48.240;16.478;2023-05-22T04:32:54;99660.66;;;15.00;75.42
19594;BME280;9944;48.240;16.478;2023-05-22T04:36:57;99656.16;;;15.02;75.68
19594;BME280;9944;48.240;16.478;2023-05-22T04:41:00;99663.13;;;15.06;75.78
19594;BME280;9944;48.240;16.478;2023-05-22T04:45:05;99668.38;;;15.09;76.10
19594;BME280;9944;48.240;16.478;2023-05-22T04:49:10;99662.06;;;15.13;76.33
19594;BME280;9944;48.240;16.478;2023-05-22T04:53:13;99667.31;;;15.16;76.40
19594;BME280;9944;48.240;16.478;2023-05-22T04:57:16;99668.97;;;15.20;76.65
19594;BME280;9944;48.240;16.478;2023-05-22T05:01:20;99664.44;;;15.25;76.78
19594;BME280;9944;48.240;16.478;2023-05-22T05:05:24;99661.63;;;15.31;76.48
19594;BME280;9944;48.240;16.478;2023-05-22T05:09:28;99664.97;;;15.40;76.62
19594;BME280;9944;48.240;16.478;2023-05-22T05:13:31;99667.41;;;15.47;76.45
19594;BME280;9944;48.240;16.478;2023-05-22T05:17:34;99673.38;;;15.57;76.56
19594;BME280;9944;48.240;16.478;2023-05-22T05:21:39;99674.88;;;15.67;76.53
19594;BME280;9944;48.240;16.478;2023-05-22T05:25:43;99672.72;;;15.82;76.50
19594;BME280;9944;48.240;16.478;2023-05-22T05:29:47;99669.63;;;15.99;76.58
19594;BME280;9944;48.240;16.478;2023-05-22T05:33:59;99677.16;;;16.16;76.16
19594;BME280;9944;48.240;16.478;2023-05-22T05:38:23;99667.59;;;16.38;76.01
19594;BME280;9944;48.240;16.478;2023-05-22T05:42:27;99667.81;;;16.60;75.71
19594;BME280;9944;48.240;16.478;2023-05-22T05:46:33;99663.59;;;16.83;75.39
19594;BME280;9944;48.240;16.478;2023-05-22T05:50:37;99673.59;;;17.05;74.91
19594;BME280;9944;48.240;16.478;2023-05-22T05:54:43;99669.34;;;17.26;74.07
19594;BME280;9944;48.240;16.478;2023-05-22T05:58:52;99668.69;;;17.44;73.48
19594;BME280;9944;48.240;16.478;2023-05-22T06:03:21;99670.53;;;17.69;73.04
19594;BME280;9944;48.240;16.478;2023-05-22T06:07:41;99660.09;;;17.88;72.34
19594;BME280;9944;48.240;16.478;2023-05-22T06:11:46;99658.56;;;18.06;71.90
19594;BME280;9944;48.240;16.478;2023-05-22T06:15:49;99650.78;;;18.23;71.34
19594;BME280;9944;48.240;16.478;2023-05-22T06:19:52;99655.19;;;18.48;70.67
19594;BME280;9944;48.240;16.478;2023-05-22T06:23:56;99652.53;;;18.72;70.03
19594;BME280;9944;48.240;16.478;2023-05-22T06:28:00;99648.16;;;18.91;69.05
19594;BME280;9944;48.240;16.478;2023-05-22T06:32:04;99646.75;;;19.04;67.72
19594;BME280;9944;48.240;16.478;2023-05-22T06:36:09;99646.97;;;19.20;68.08
19594;BME280;9944;48.240;16.478;2023-05-22T06:40:13;99641.72;;;19.39;67.52
19594;BME280;9944;48.240;16.478;2023-05-22T06:44:30;99649.13;;;19.55;66.80
19594;BME280;9944;48.240;16.478;2023-05-22T06:48:39;99653.81;;;19.70;66.27
19594;BME280;9944;48.240;16.478;2023-05-22T06:52:51;99658.41;;;19.87;65.42
19594;BME280;9944;48.240;16.478;2023-05-22T06:56:54;99662.88;;;20.07;65.26
19594;BME280;9944;48.240;16.478;2023-05-22T07:01:02;99658.41;;;20.27;64.90
19594;BME280;9944;48.240;16.478;2023-05-22T07:05:14;99659.75;;;20.37;64.63
19594;BME280;9944;48.240;16.478;2023-05-22T07:09:26;99661.59;;;20.55;64.23
19594;BME280;9944;48.240;16.478;2023-05-22T07:13:29;99652.66;;;20.74;63.87
19594;BME280;9944;48.240;16.478;2023-05-22T07:17:34;99645.09;;;20.82;62.96
19594;BME280;9944;48.240;16.478;2023-05-22T07:21:37;99654.16;;;20.99;62.29
19594;BME280;9944;48.240;16.478;2023-05-22T07:25:42;99645.53;;;21.11;61.88
19594;BME280;9944;48.240;16.478;2023-05-22T07:29:47;99644.59;;;21.29;62.02
19594;BME280;9944;48.240;16.478;2023-05-22T07:33:53;99640.03;;;21.49;60.30
19594;BME280;9944;48.240;16.478;2023-05-22T07:37:56;99647.53;;;21.60;60.40
19594;BME280;9944;48.240;16.478;2023-05-22T07:42:00;99638.97;;;21.69;59.04
19594;BME280;9944;48.240;16.478;2023-05-22T07:46:06;99641.19;;;21.78;58.00
19594;BME280;9944;48.240;16.478;2023-05-22T07:50:19;99632.41;;;21.92;57.96
19594;BME280;9944;48.240;16.478;2023-05-22T07:54:22;99620.13;;;22.04;57.16
19594;BME280;9944;48.240;16.478;2023-05-22T07:58:26;99622.41;;;22.12;55.83
19594;BME280;9944;48.240;16.478;2023-05-22T08:02:29;99629.13;;;22.20;56.18
19594;BME280;9944;48.240;16.478;2023-05-22T08:06:35;99624.88;;;22.32;56.48
19594;BME280;9944;48.240;16.478;2023-05-22T08:10:40;99625.75;;;22.49;55.99
19594;BME280;9944;48.240;16.478;2023-05-22T08:15:04;99622.31;;;22.62;55.76
19594;BME280;9944;48.240;16.478;2023-05-22T08:19:08;99628.06;;;22.72;55.35
19594;BME280;9944;48.240;16.478;2023-05-22T08:23:13;99623.69;;;22.86;55.73
19594;BME280;9944;48.240;16.478;2023-05-22T08:27:16;99620.19;;;22.99;55.61
19594;BME280;9944;48.240;16.478;2023-05-22T08:31:19;99614.97;;;23.12;55.31
19594;BME280;9944;48.240;16.478;2023-05-22T08:35:23;99615.06;;;23.27;55.09
19594;BME280;9944;48.240;16.478;2023-05-22T08:39:28;99614.50;;;23.36;54.35
19594;BME280;9944;48.240;16.478;2023-05-22T08:43:32;99615.31;;;23.52;54.20
19594;BME280;9944;48.240;16.478;2023-05-22T08:47:36;99617.44;;;23.62;53.35
19594;BME280;9944;48.240;16.478;2023-05-22T08:51:40;99607.66;;;23.75;52.95
19594;BME280;9944;48.240;16.478;2023-05-22T08:55:45;99610.53;;;23.86;53.34
19594;BME280;9944;48.240;16.478;2023-05-22T08:59:49;99611.56;;;24.00;52.67
19594;BME280;9944;48.240;16.478;2023-05-22T09:03:52;99604.03;;;24.05;52.42
19594;BME280;9944;48.240;16.478;2023-05-22T09:07:56;99601.91;;;24.10;52.39
19594;BME280;9944;48.240;16.478;2023-05-22T09:12:18;99600.84;;;24.12;52.06
19594;BME280;9944;48.240;16.478;2023-05-22T09:16:22;99598.63;;;24.19;52.89
19594;BME280;9944;48.240;16.478;2023-05-22T09:20:27;99598.84;;;24.30;52.05
19594;BME280;9944;48.240;16.478;2023-05-22T09:24:36;99597.06;;;24.44;52.67
19594;BME280;9944;48.240;16.478;2023-05-22T09:28:41;99597.03;;;24.58;51.54
19594;BME280;9944;48.240;16.478;2023-05-22T09:32:45;99598.31;;;24.67;50.64
19594;BME280;9944;48.240;16.478;2023-05-22T09:36:52;99595.09;;;24.75;49.80
19594;BME280;9944;48.240;16.478;2023-05-22T09:40:56;99594.78;;;24.79;50.59
19594;BME280;9944;48.240;16.478;2023-05-22T09:45:03;99588.88;;;24.87;49.93
19594;BME280;9944;48.240;16.478;2023-05-22T09:49:11;99595.72;;;24.93;49.96
19594;BME280;9944;48.240;16.478;2023-05-22T09:53:35;99592.03;;;24.94;50.08
19594;BME280;9944;48.240;16.478;2023-05-22T09:57:40;99591.72;;;24.98;49.94
19594;BME280;9944;48.240;16.478;2023-05-22T10:01:46;99584.94;;;25.05;48.93
19594;BME280;9944;48.240;16.478;2023-05-22T10:05:53;99582.78;;;25.11;49.26
19594;BME280;9944;48.240;16.478;2023-05-22T10:10:00;99585.84;;;25.19;48.47
19594;BME280;9944;48.240;16.478;2023-05-22T10:14:06;99580.00;;;25.25;49.08
19594;BME280;9944;48.240;16.478;2023-05-22T10:18:12;99573.38;;;25.43;48.89
19594;BME280;9944;48.240;16.478;2023-05-22T10:22:16;99559.97;;;25.55;48.37
19594;BME280;9944;48.240;16.478;2023-05-22T10:26:22;99560.41;;;25.61;47.60
19594;BME280;9944;48.240;16.478;2023-05-22T10:30:29;99557.19;;;25.69;47.34
19594;BME280;9944;48.240;16.478;2023-05-22T10:35:07;99552.84;;;25.79;47.01
19594;BME280;9944;48.240;16.478;2023-05-22T10:39:23;99552.84;;;25.79;46.11
19594;BME280;9944;48.240;16.478;2023-05-22T10:43:37;99543.09;;;25.90;46.32
19594;BME280;9944;48.240;16.478;2023-05-22T10:47:41;99540.94;;;26.08;46.87
19594;BME280;9944;48.240;16.478;2023-05-22T10:51:45;99540.91;;;26.21;45.54
19594;BME280;9944;48.240;16.478;2023-05-22T10:55:49;99541.94;;;26.31;45.31
19594;BME280;9944;48.240;16.478;2023-05-22T11:00:05;99534.13;;;26.39;44.42
19594;BME280;9944;48.240;16.478;2023-05-22T11:04:10;99527.41;;;26.45;45.77
19594;BME280;9944;48.240;16.478;2023-05-22T11:08:36;99517.94;;;26.50;45.51
19594;BME280;9944;48.240;16.478;2023-05-22T11:12:40;99524.44;;;26.61;44.69
19594;BME280;9944;48.240;16.478;2023-05-22T11:16:43;99519.78;;;26.63;43.91
19594;BME280;9944;48.240;16.478;2023-05-22T11:20:46;99513.38;;;26.64;43.98
19594;BME280;9944;48.240;16.478;2023-05-22T11:24:51;99510.25;;;26.57;43.35
19594;BME280;9944;48.240;16.478;2023-05-22T11:28:54;99503.03;;;26.58;43.95
19594;BME280;9944;48.240;16.478;2023-05-22T11:32:58;99500.88;;;26.74;44.10
19594;BME280;9944;48.240;16.478;2023-05-22T11:37:02;99491.47;;;26.91;43.59
19594;BME280;9944;48.240;16.478;2023-05-22T11:41:07;99486.66;;;26.95;43.11
19594;BME280;9944;48.240;16.478;2023-05-22T11:45:10;99487.06;;;27.01;43.35
19594;BME280;9944;48.240;16.478;2023-05-22T11:49:14;99484.22;;;27.03;43.90
19594;BME280;9944;48.240;16.478;2023-05-22T11:53:18;99481.66;;;27.13;43.76
19594;BME280;9944;48.240;16.478;2023-05-22T11:57:23;99483.50;;;27.12;43.27
19594;BME280;9944;48.240;16.478;2023-05-22T12:01:26;99481.53;;;27.14;43.47
19594;BME280;9944;48.240;16.478;2023-05-22T12:05:30;99471.72;;;27.24;42.87
19594;BME280;9944;48.240;16.478;2023-05-22T12:09:33;99469.53;;;27.29;42.80
19594;BME280;9944;48.240;16.478;2023-05-22T12:13:38;99466.34;;;27.36;43.44
19594;BME280;9944;48.240;16.478;2023-05-22T12:17:42;99468.56;;;27.42;42.90
19594;BME280;9944;48.240;16.478;2023-05-22T12:21:45;99460.41;;;27.31;42.32
19594;BME280;9944;48.240;16.478;2023-05-22T12:25:56;99457.44;;;27.22;41.72
19594;BME280;9944;48.240;16.478;2023-05-22T12:30:07;99465.81;;;27.19;42.33
19594;BME280;9944;48.240;16.478;2023-05-22T12:34:11;99468.28;;;27.22;41.80
19594;BME280;9944;48.240;16.478;2023-05-22T12:38:14;99451.28;;;27.20;42.07
19594;BME280;9944;48.240;16.478;2023-05-22T12:42:17;99457.31;;;27.24;42.44
19594;BME280;9944;48.240;16.478;2023-05-22T12:46:22;99469.91;;;27.36;42.16
19594;BME280;9944;48.240;16.478;2023-05-22T12:50:25;99461.66;;;27.38;41.58
19594;BME280;9944;48.240;16.478;2023-05-22T12:54:28;99458.44;;;27.33;42.11
19594;BME280;9944;48.240;16.478;2023-05-22T12:58:32;99461.66;;;27.38;42.80
19594;BME280;9944;48.240;16.478;2023-05-22T13:02:36;99454.38;;;27.38;42.37
19594;BME280;9944;48.240;16.478;2023-05-22T13:06:39;99455.00;;;27.42;42.07
19594;BME280;9944;48.240;16.478;2023-05-22T13:10:42;99448.59;;;27.43;41.35
19594;BME280;9944;48.240;16.478;2023-05-22T13:14:46;99448.47;;;27.44;41.58
19594;BME280;9944;48.240;16.478;2023-05-22T13:18:50;99446.38;;;27.48;41.07
19594;BME280;9944;48.240;16.478;2023-05-22T13:22:54;99445.13;;;27.52;41.01
19594;BME280;9944;48.240;16.478;2023-05-22T13:26:57;99431.31;;;27.44;40.49
19594;BME280;9944;48.240;16.478;2023-05-22T13:31:00;99437.50;;;27.35;39.88
19594;BME280;9944;48.240;16.478;2023-05-22T13:35:05;99429.59;;;27.32;40.05
19594;BME280;9944;48.240;16.478;2023-05-22T13:39:08;99426.16;;;27.29;40.79
19594;BME280;9944;48.240;16.478;2023-05-22T13:43:11;99431.22;;;27.34;40.50
19594;BME280;9944;48.240;16.478;2023-05-22T13:47:15;99425.41;;;27.27;40.70
19594;BME280;9944;48.240;16.478;2023-05-22T13:51:19;99420.72;;;27.29;41.11
19594;BME280;9944;48.240;16.478;2023-05-22T13:55:23;99421.13;;;27.36;40.23
19594;BME280;9944;48.240;16.478;2023-05-22T13:59:26;99415.19;;;27.42;40.46
19594;BME280;9944;48.240;16.478;2023-05-22T14:03:29;99408.16;;;27.51;41.31
19594;BME280;9944;48.240;16.478;2023-05-22T14:07:34;99412.59;;;27.63;40.49
19594;BME280;9944;48.240;16.478;2023-05-22T14:11:37;99405.44;;;27.62;40.90
19594;BME280;9944;48.240;16.478;2023-05-22T14:15:40;99400.50;;;27.56;40.07
19594;BME280;9944;48.240;16.478;2023-05-22T14:19:44;99396.94;;;27.56;39.70
19594;BME280;9944;48.240;16.478;2023-05-22T14:23:48;99385.59;;;27.51;39.70
19594;BME280;9944;48.240;16.478;2023-05-22T14:27:51;99374.88;;;27.49;39.77
19594;BME280;9944;48.240;16.478;2023-05-22T14:32:00;99381.03;;;27.51;40.25
19594;BME280;9944;48.240;16.478;2023-05-22T14:36:05;99379.81;;;27.55;40.00
19594;BME280;9944;48.240;16.478;2023-05-22T14:40:09;99373.38;;;27.56;40.21
19594;BME280;9944;48.240;16.478;2023-05-22T14:44:13;99368.47;;;27.50;40.72
19594;BME280;9944;48.240;16.478;2023-05-22T14:48:16;99372.56;;;27.33;40.78
19594;BME280;9944;48.240;16.478;2023-05-22T14:52:19;99373.91;;;27.16;40.91
19594;BME280;9944;48.240;16.478;2023-05-22T14:56:23;99376.09;;;27.00;41.24
19594;BME280;9944;48.240;16.478;2023-05-22T15:00:27;99375.69;;;26.93;41.75
19594;BME280;9944;48.240;16.478;2023-05-22T15:04:30;99363.63;;;26.86;41.35
19594;BME280;9944;48.240;16.478;2023-05-22T15:08:33;99363.25;;;26.79;41.71
19594;BME280;9944;48.240;16.478;2023-05-22T15:12:38;99368.50;;;26.69;41.83
19594;BME280;9944;48.240;16.478;2023-05-22T15:16:41;99368.38;;;26.60;42.14
19594;BME280;9944;48.240;16.478;2023-05-22T15:20:45;99352.78;;;26.50;42.77
19594;BME280;9944;48.240;16.478;2023-05-22T15:25:02;99351.53;;;26.43;42.46
19594;BME280;9944;48.240;16.478;2023-05-22T15:29:07;99344.88;;;26.36;42.57
19594;BME280;9944;48.240;16.478;2023-05-22T15:33:10;99350.78;;;26.30;42.66
19594;BME280;9944;48.240;16.478;2023-05-22T15:37:13;99343.84;;;26.26;42.95
19594;BME280;9944;48.240;16.478;2023-05-22T15:41:17;99342.59;;;26.18;42.05
19594;BME280;9944;48.240;16.478;2023-05-22T15:45:21;99343.09;;;26.12;42.61
19594;BME280;9944;48.240;16.478;2023-05-22T15:49:24;99342.44;;;26.09;42.41
19594;BME280;9944;48.240;16.478;2023-05-22T15:53:31;99328.16;;;26.07;42.36
19594;BME280;9944;48.240;16.478;2023-05-22T15:57:34;99329.38;;;26.03;43.01
19594;BME280;9944;48.240;16.478;2023-05-22T16:01:40;99328.03;;;25.97;42.99
19594;BME280;9944;48.240;16.478;2023-05-22T16:05:43;99321.19;;;25.91;42.86
19594;BME280;9944;48.240;16.478;2023-05-22T16:09:47;99337.75;;;25.87;42.89
19594;BME280;9944;48.240;16.478;2023-05-22T16:13:50;99339.94;;;25.82;43.10
19594;BME280;9944;48.240;16.478;2023-05-22T16:17:55;99338.44;;;25.77;43.09
19594;BME280;9944;48.240;16.478;2023-05-22T16:21:58;99337.81;;;25.74;43.35
19594;BME280;9944;48.240;16.478;2023-05-22T16:26:01;99333.59;;;25.70;43.40
19594;BME280;9944;48.240;16.478;2023-05-22T16:30:06;99340.34;;;25.64;43.17
19594;BME280;9944;48.240;16.478;2023-05-22T16:34:10;99345.22;;;25.59;43.88
19594;BME280;9944;48.240;16.478;2023-05-22T16:38:14;99350.84;;;25.56;43.80
19594;BME280;9944;48.240;16.478;2023-05-22T16:42:17;99346.13;;;25.47;43.97
19594;BME280;9944;48.240;16.478;2023-05-22T16:46:20;99345.59;;;25.41;44.02
19594;BME280;9944;48.240;16.478;2023-05-22T16:50:24;99356.63;;;25.38;43.92
19594;BME280;9944;48.240;16.478;2023-05-22T16:54:27;99357.84;;;25.34;43.96
19594;BME280;9944;48.240;16.478;2023-05-22T16:58:31;99359.75;;;25.32;43.98
19594;BME280;9944;48.240;16.478;2023-05-22T17:02:34;99360.97;;;25.28;44.42
19594;BME280;9944;48.240;16.478;2023-05-22T17:06:39;99354.03;;;25.24;44.47
19594;BME280;9944;48.240;16.478;2023-05-22T17:10:42;99362.34;;;25.21;45.08
19594;BME280;9944;48.240;16.478;2023-05-22T17:14:45;99359.13;;;25.16;45.14
19594;BME280;9944;48.240;16.478;2023-05-22T17:18:49;99354.25;;;25.08;45.40
19594;BME280;9944;48.240;16.478;2023-05-22T17:22:56;99357.28;;;25.03;45.62
19594;BME280;9944;48.240;16.478;2023-05-22T17:26:59;99362.16;;;24.98;45.55
19594;BME280;9944;48.240;16.478;2023-05-22T17:31:04;99355.47;;;24.91;45.87
19594;BME280;9944;48.240;16.478;2023-05-22T17:35:07;99359.34;;;24.87;45.69
19594;BME280;9944;48.240;16.478;2023-05-22T17:39:12;99348.88;;;24.82;46.21
19594;BME280;9944;48.240;16.478;2023-05-22T17:43:15;99362.78;;;24.76;46.74
19594;BME280;9944;48.240;16.478;2023-05-22T17:47:19;99354.34;;;24.68;47.00
19594;BME280;9944;48.240;16.478;2023-05-22T17:51:22;99354.13;;;24.58;47.21
19594;BME280;9944;48.240;16.478;2023-05-22T17:55:27;99345.69;;;24.50;47.55
19594;BME280;9944;48.240;16.478;2023-05-22T17:59:31;99357.13;;;24.41;47.57
19594;BME280;9944;48.240;16.478;2023-05-22T18:03:34;99347.06;;;24.30;48.20
19594;BME280;9944;48.240;16.478;2023-05-22T18:07:37;99344.00;;;24.22;47.97
19594;BME280;9944;48.240;16.478;2023-05-22T18:11:41;99334.59;;;24.15;47.71
19594;BME280;9944;48.240;16.478;2023-05-22T18:15:45;99342.44;;;24.05;48.01
19594;BME280;9944;48.240;16.478;2023-05-22T18:19:49;99347.28;;;24.00;48.63
19594;BME280;9944;48.240;16.478;2023-05-22T18:23:53;99345.94;;;23.92;48.36
19594;BME280;9944;48.240;16.478;2023-05-22T18:27:58;99350.00;;;23.85;49.08
19594;BME280;9944;48.240;16.478;2023-05-22T18:32:01;99354.06;;;23.78;49.16
19594;BME280;9944;48.240;16.478;2023-05-22T18:36:04;99360.06;;;23.69;49.47
19594;BME280;9944;48.240;16.478;2023-05-22T18:40:08;99340.06;;;23.59;49.67
19594;BME280;9944;48.240;16.478;2023-05-22T18:44:13;99350.78;;;23.46;50.08
19594;BME280;9944;48.240;16.478;2023-05-22T18:48:16;99340.69;;;23.35;50.14
19594;BME280;9944;48.240;16.478;2023-05-22T18:52:23;99348.41;;;23.27;50.71
19594;BME280;9944;48.240;16.478;2023-05-22T18:56:26;99352.59;;;23.16;50.42
19594;BME280;9944;48.240;16.478;2023-05-22T19:00:30;99357.69;;;23.07;50.67
19594;BME280;9944;48.240;16.478;2023-05-22T19:04:33;99355.41;;;23.00;51.43
19594;BME280;9944;48.240;16.478;2023-05-22T19:08:37;99363.16;;;22.91;51.36
19594;BME280;9944;48.240;16.478;2023-05-22T19:12:41;99367.03;;;22.87;51.66
19594;BME280;9944;48.240;16.478;2023-05-22T19:16:45;99374.69;;;22.78;51.67
19594;BME280;9944;48.240;16.478;2023-05-22T19:20:48;99367.97;;;22.71;51.96
19594;BME280;9944;48.240;16.478;2023-05-22T19:24:51;99357.59;;;22.65;52.49
19594;BME280;9944;48.240;16.478;2023-05-22T19:28:54;99368.03;;;22.55;52.83
19594;BME280;9944;48.240;16.478;2023-05-22T19:33:01;99373.22;;;22.42;53.38
19594;BME280;9944;48.240;16.478;2023-05-22T19:37:06;99365.63;;;22.35;53.55
19594;BME280;9944;48.240;16.478;2023-05-22T19:41:10;99374.16;;;22.27;54.27
19594;BME280;9944;48.240;16.478;2023-05-22T19:45:13;99372.78;;;22.20;54.26
19594;BME280;9944;48.240;16.478;2023-05-22T19:49:17;99365.84;;;22.16;54.59
19594;BME280;9944;48.240;16.478;2023-05-22T19:53:20;99367.00;;;22.12;55.33
19594;BME280;9944;48.240;16.478;2023-05-22T19:57:24;99359.19;;;22.07;54.78
19594;BME280;9944;48.240;16.478;2023-05-22T20:01:27;99369.50;;;21.99;54.93
19594;BME280;9944;48.240;16.478;2023-05-22T20:05:32;99357.47;;;21.90;54.65
19594;BME280;9944;48.240;16.478;2023-05-22T20:09:35;99358.78;;;21.83;55.22
19594;BME280;9944;48.240;16.478;2023-05-22T20:13:39;99356.44;;;21.77;55.33
19594;BME280;9944;48.240;16.478;2023-05-22T20:17:42;99362.91;;;21.73;55.20
19594;BME280;9944;48.240;16.478;2023-05-22T20:21:49;99366.91;;;21.65;55.44
19594;BME280;9944;48.240;16.478;2023-05-22T20:25:53;99370.91;;;21.58;55.57
19594;BME280;9944;48.240;16.478;2023-05-22T20:29:56;99378.53;;;21.50;55.86
19594;BME280;9944;48.240;16.478;2023-05-22T20:34:01;99383.34;;;21.43;56.38
19594;BME280;9944;48.240;16.478;2023-05-22T20:38:06;99382.84;;;21.37;56.59
19594;BME280;9944;48.240;16.478;2023-05-22T20:42:10;99387.41;;;21.35;56.30
19594;BME280;9944;48.240;16.478;2023-05-22T20:46:13;99376.94;;;21.30;56.94
19594;BME280;9944;48.240;16.478;2023-05-22T20:50:17;99377.34;;;21.22;57.30
19594;BME280;9944;48.240;16.478;2023-05-22T20:54:21;99377.63;;;21.18;57.37
19594;BME280;9944;48.240;16.478;2023-05-22T20:58:24;99385.06;;;21.12;56.90
19594;BME280;9944;48.240;16.478;2023-05-22T21:02:28;99389.16;;;21.02;57.14
19594;BME280;9944;48.240;16.478;2023-05-22T21:06:31;99390.59;;;20.92;57.26
19594;BME280;9944;48.240;16.478;2023-05-22T21:10:36;99397.94;;;20.88;57.88
19594;BME280;9944;48.240;16.478;2023-05-22T21:14:39;99387.53;;;20.82;58.57
19594;BME280;9944;48.240;16.478;2023-05-22T21:18:44;99391.47;;;20.75;58.97
19594;BME280;9944;48.240;16.478;2023-05-22T21:22:47;99390.94;;;20.68;59.17
19594;BME280;9944;48.240;16.478;2023-05-22T21:26:51;99398.28;;;20.65;59.73
19594;BME280;9944;48.240;16.478;2023-05-22T21:30:55;99389.75;;;20.56;60.01
19594;BME280;9944;48.240;16.478;2023-05-22T21:34:58;99391.00;;;20.49;60.06
19594;BME280;9944;48.240;16.478;2023-05-22T21:39:01;99407.56;;;20.40;60.59
19594;BME280;9944;48.240;16.478;2023-05-22T21:43:05;99405.44;;;20.29;60.73